createdAt,value
2023-04-27T00:01:19.813Z,0.70
2023-04-27T00:03:46.830Z,0.47
2023-04-27T00:06:13.729Z,0.30
2023-04-27T00:08:40.559Z,0.35
2023-04-27T00:11:07.412Z,0.50
2023-04-27T00:13:34.309Z,0.50
2023-04-27T00:16:01.736Z,0.50
2023-04-27T00:18:28.596Z,0.40
2023-04-27T00:20:55.446Z,0.32
2023-04-27T00:23:22.214Z,0.47
2023-04-27T00:25:49.036Z,0.37
2023-04-27T00:28:15.922Z,0.45
2023-04-27T00:30:42.702Z,0.40
2023-04-27T00:33:09.570Z,0.50
2023-04-27T00:35:36.904Z,0.35
2023-04-27T00:38:03.734Z,0.40
2023-04-27T00:40:30.567Z,0.40
2023-04-27T00:42:57.414Z,0.40
2023-04-27T00:45:25.616Z,0.40
2023-04-27T00:47:53.656Z,0.40
2023-04-27T00:50:29.545Z,0.33
2023-04-27T00:52:57.583Z,0.60
2023-04-27T00:55:24.697Z,0.55
2023-04-27T00:57:51.746Z,0.50
2023-04-27T01:00:18.714Z,0.40
2023-04-27T01:02:45.803Z,0.30
2023-04-27T01:05:13.446Z,0.30
2023-04-27T01:07:40.910Z,0.70
2023-04-27T01:10:08.945Z,0.22
2023-04-27T01:12:36.134Z,0.30
2023-04-27T01:15:06.560Z,0.30
2023-04-27T01:17:35.203Z,0.30
2023-04-27T01:20:05.567Z,0.35
2023-04-27T01:22:32.471Z,0.40
2023-04-27T01:24:59.284Z,0.60
2023-04-27T01:27:26.570Z,0.50
2023-04-27T01:29:53.495Z,0.32
2023-04-27T01:32:20.404Z,0.20
2023-04-27T01:34:47.277Z,0.40
2023-04-27T01:37:14.212Z,0.25
2023-04-27T01:39:41.030Z,0.30
2023-04-27T01:42:08.371Z,0.32
2023-04-27T01:44:35.204Z,0.30
2023-04-27T01:47:02.038Z,0.40
2023-04-27T01:49:28.919Z,0.30
2023-04-27T01:51:56.223Z,0.30
2023-04-27T01:54:22.999Z,0.30
2023-04-27T01:56:50.700Z,0.52
2023-04-27T01:59:18.185Z,0.30
2023-04-27T02:01:45.103Z,0.50
2023-04-27T02:04:12.352Z,0.30
2023-04-27T02:06:39.564Z,0.38
2023-04-27T02:09:06.849Z,0.30
2023-04-27T02:11:33.786Z,0.47
2023-04-27T02:14:00.607Z,0.40
2023-04-27T02:16:33.550Z,0.50
2023-04-27T02:19:01.488Z,0.25
2023-04-27T02:21:28.246Z,0.60
2023-04-27T02:23:56.107Z,0.57
2023-04-27T02:26:23.791Z,0.45
2023-04-27T02:28:51.342Z,0.40
2023-04-27T02:31:18.948Z,0.50
2023-04-27T02:33:46.203Z,0.30
2023-04-27T02:36:13.216Z,0.40
2023-04-27T02:38:40.112Z,0.50
2023-04-27T02:41:06.892Z,0.40
2023-04-27T02:43:34.327Z,0.40
2023-04-27T02:46:04.894Z,0.60
2023-04-27T02:48:32.223Z,0.30
2023-04-27T02:50:59.062Z,0.60
2023-04-27T02:53:26.001Z,0.40
2023-04-27T02:55:52.891Z,0.30
2023-04-27T02:58:19.963Z,0.50
2023-04-27T03:00:48.179Z,0.40
2023-04-27T03:03:15.863Z,0.32
2023-04-27T03:05:43.031Z,0.30
2023-04-27T03:08:09.926Z,0.40
2023-04-27T03:10:36.688Z,0.45
2023-04-27T03:13:03.574Z,0.40
2023-04-27T03:15:30.528Z,0.50
2023-04-27T03:17:57.372Z,0.50
2023-04-27T03:20:24.518Z,0.60
2023-04-27T03:22:53.660Z,0.60
2023-04-27T03:25:20.489Z,0.60
2023-04-27T03:27:47.386Z,0.50
2023-04-27T03:30:14.607Z,0.50
2023-04-27T03:32:41.630Z,0.40
2023-04-27T03:35:09.072Z,0.60
2023-04-27T03:37:35.953Z,0.35
2023-04-27T03:40:03.114Z,0.50
2023-04-27T03:42:29.838Z,0.70
2023-04-27T03:44:56.940Z,0.68
2023-04-27T03:47:23.911Z,0.65
2023-04-27T03:49:50.885Z,0.70
2023-04-27T03:52:17.904Z,0.55
2023-04-27T03:54:44.655Z,0.60
2023-04-27T03:57:12.497Z,0.98
2023-04-27T03:59:40.098Z,0.43
2023-04-27T04:02:06.987Z,0.80
2023-04-27T04:04:33.887Z,0.45
2023-04-27T04:07:02.787Z,0.80
2023-04-27T04:09:29.597Z,0.60
2023-04-27T04:11:56.377Z,0.98
2023-04-27T04:14:24.073Z,1.10
2023-04-27T04:16:51.756Z,0.95
2023-04-27T04:19:22.100Z,0.83
2023-04-27T04:21:49.181Z,0.60
2023-04-27T04:24:16.072Z,0.82
2023-04-27T04:26:43.860Z,0.70
2023-04-27T04:29:11.328Z,0.98
2023-04-27T04:31:38.651Z,0.83
2023-04-27T04:34:05.450Z,0.90
2023-04-27T04:36:32.325Z,0.80
2023-04-27T04:38:59.223Z,0.95
2023-04-27T04:41:26.920Z,0.75
2023-04-27T04:43:53.730Z,0.90
2023-04-27T04:46:20.503Z,0.70
2023-04-27T04:48:48.212Z,0.85
2023-04-27T04:51:15.047Z,1.30
2023-04-27T04:53:41.984Z,1.00
2023-04-27T04:56:13.802Z,1.07
2023-04-27T04:58:40.694Z,1.13
2023-04-27T05:01:07.560Z,1.20
2023-04-27T05:03:34.765Z,1.10
2023-04-27T05:06:01.762Z,1.02
2023-04-27T05:08:28.591Z,1.00
2023-04-27T05:10:55.721Z,1.10
2023-04-27T05:13:22.821Z,0.88
2023-04-27T05:15:49.790Z,1.13
2023-04-27T05:18:16.602Z,1.08
2023-04-27T05:20:43.427Z,0.97
2023-04-27T05:23:10.302Z,0.73
2023-04-27T05:25:37.359Z,0.57
2023-04-27T05:28:04.389Z,0.90
2023-04-27T05:30:31.185Z,1.00
2023-04-27T05:32:58.053Z,0.93
2023-04-27T05:35:25.030Z,1.40
2023-04-27T05:37:51.952Z,0.95
2023-04-27T05:40:18.759Z,0.82
2023-04-27T05:42:49.671Z,1.00
2023-04-27T05:45:16.926Z,0.83
2023-04-27T05:47:43.741Z,0.88
2023-04-27T05:50:11.340Z,0.70
2023-04-27T05:52:38.348Z,0.73
2023-04-27T05:55:06.430Z,1.10
2023-04-27T05:57:33.147Z,0.83
2023-04-27T06:00:00.120Z,0.82
2023-04-27T06:02:26.966Z,0.80
2023-04-27T06:04:53.996Z,1.23
2023-04-27T06:07:21.126Z,1.05
2023-04-27T06:09:48.007Z,0.80
2023-04-27T06:12:14.761Z,1.17
2023-04-27T06:14:41.653Z,0.57
2023-04-27T06:17:08.405Z,1.23
2023-04-27T06:19:35.205Z,1.27
2023-04-27T06:22:02.144Z,0.90
2023-04-27T06:24:28.988Z,0.85
2023-04-27T06:26:55.881Z,0.70
2023-04-27T06:29:22.658Z,0.98
2023-04-27T06:31:50.401Z,0.60
2023-04-27T06:34:17.268Z,0.83
2023-04-27T06:36:44.154Z,1.05
2023-04-27T06:39:10.912Z,0.70
2023-04-27T06:41:37.818Z,0.63
2023-04-27T06:44:05.204Z,0.75
2023-04-27T06:46:31.982Z,0.70
2023-04-27T06:48:59.685Z,0.73
2023-04-27T06:51:26.447Z,0.50
2023-04-27T06:53:54.188Z,0.45
2023-04-27T06:56:21.167Z,0.30
2023-04-27T06:58:47.956Z,0.90
2023-04-27T07:01:15.732Z,0.50
2023-04-27T07:03:42.793Z,0.28
2023-04-27T07:06:10.231Z,0.57
2023-04-27T07:08:37.089Z,0.28
2023-04-27T07:11:03.968Z,0.50
2023-04-27T07:13:30.870Z,0.57
2023-04-27T07:15:57.865Z,0.47
2023-04-27T07:18:26.100Z,0.40
2023-04-27T07:20:53.824Z,0.60
2023-04-27T07:23:20.760Z,0.70
2023-04-27T07:25:47.693Z,0.60
2023-04-27T07:28:14.478Z,0.40
2023-04-27T07:30:41.366Z,0.47
2023-04-27T07:33:09.415Z,0.30
2023-04-27T07:35:37.795Z,0.30
2023-04-27T07:38:05.110Z,0.25
2023-04-27T07:40:32.309Z,0.20
2023-04-27T07:42:59.112Z,0.30
2023-04-27T07:45:26.195Z,0.52
2023-04-27T07:47:53.058Z,0.70
2023-04-27T07:50:20.057Z,0.40
2023-04-27T07:52:46.811Z,0.63
2023-04-27T07:55:13.672Z,0.40
2023-04-27T07:57:40.562Z,0.50
2023-04-27T08:00:08.034Z,0.50
2023-04-27T08:02:39.607Z,0.35
2023-04-27T08:05:07.340Z,0.40
2023-04-27T08:07:39.542Z,0.40
2023-04-27T08:10:09.541Z,0.20
2023-04-27T08:13:01.934Z,0.30
2023-04-27T08:15:28.900Z,0.35
2023-04-27T08:17:55.854Z,0.45
2023-04-27T08:20:22.635Z,0.47
2023-04-27T08:22:51.506Z,0.30
2023-04-27T08:25:18.482Z,0.37
2023-04-27T08:27:45.392Z,0.40
2023-04-27T08:30:12.529Z,0.30
2023-04-27T08:32:39.799Z,0.10
2023-04-27T08:35:06.737Z,0.30
2023-04-27T08:37:33.716Z,0.90
2023-04-27T08:40:00.482Z,0.50
2023-04-27T08:42:27.469Z,0.30
2023-04-27T08:44:54.249Z,0.30
2023-04-27T08:47:28.389Z,0.50
2023-04-27T08:50:07.730Z,0.40
2023-04-27T08:52:34.713Z,0.30
2023-04-27T08:55:01.524Z,0.40
2023-04-27T08:57:28.477Z,0.50
2023-04-27T08:59:59.381Z,0.35
2023-04-27T09:02:26.249Z,0.80
2023-04-27T09:04:53.281Z,0.50
2023-04-27T09:07:20.139Z,0.30
2023-04-27T09:09:46.980Z,0.55
2023-04-27T09:12:18.585Z,0.30
2023-04-27T09:14:59.575Z,0.50
2023-04-27T09:17:28.390Z,0.30
2023-04-27T09:20:05.339Z,0.35
2023-04-27T09:22:32.248Z,0.40
2023-04-27T09:24:59.016Z,0.50
2023-04-27T09:27:51.153Z,0.70
2023-04-27T09:30:18.434Z,0.38
2023-04-27T09:32:52.868Z,0.60
2023-04-27T09:35:26.031Z,0.40
2023-04-27T09:37:54.866Z,0.40
2023-04-27T09:40:23.632Z,0.60
2023-04-27T09:42:51.750Z,0.30
2023-04-27T09:45:18.998Z,0.63
2023-04-27T09:47:46.350Z,0.30
2023-04-27T09:50:14.048Z,0.50
2023-04-27T09:52:41.049Z,0.30
2023-04-27T09:55:16.337Z,0.40
2023-04-27T09:57:43.189Z,0.40
2023-04-27T10:00:19.080Z,1.10
2023-04-27T10:02:59.861Z,0.47
2023-04-27T10:06:00.447Z,0.43
2023-04-27T10:08:29.889Z,0.20
2023-04-27T10:10:57.172Z,0.40
2023-04-27T10:13:25.636Z,0.40
2023-04-27T10:15:53.627Z,0.38
2023-04-27T10:18:31.042Z,0.30
2023-04-27T10:21:09.964Z,0.77
2023-04-27T10:23:46.681Z,0.50
2023-04-27T10:26:13.441Z,0.40
2023-04-27T10:28:40.309Z,0.40
2023-04-27T10:31:10.684Z,0.40
2023-04-27T10:33:43.845Z,0.20
2023-04-27T10:36:15.160Z,0.70
2023-04-27T10:38:42.814Z,0.57
2023-04-27T10:41:14.438Z,0.45
2023-04-27T10:43:41.601Z,0.40
2023-04-27T10:46:12.376Z,0.95
2023-04-27T10:48:40.334Z,0.57
2023-04-27T10:51:07.315Z,0.50
2023-04-27T10:53:35.425Z,0.70
2023-04-27T10:56:02.446Z,0.50
2023-04-27T10:58:37.843Z,0.38
2023-04-27T11:01:24.481Z,0.90
2023-04-27T11:04:02.002Z,0.70
2023-04-27T11:06:39.974Z,0.60
2023-04-27T11:09:07.447Z,0.37
2023-04-27T11:11:34.480Z,0.80
2023-04-27T11:14:01.455Z,0.57
2023-04-27T11:16:29.226Z,0.73
2023-04-27T11:19:04.923Z,0.63
2023-04-27T11:21:32.489Z,0.63
2023-04-27T11:24:07.767Z,0.68
2023-04-27T11:26:34.770Z,0.50
2023-04-27T11:29:04.772Z,0.60
2023-04-27T11:31:45.726Z,0.90
2023-04-27T11:34:19.970Z,0.47
2023-04-27T11:37:10.813Z,0.60
2023-04-27T11:39:45.834Z,0.60
2023-04-27T11:42:26.562Z,0.60
2023-04-27T11:44:57.233Z,0.55
2023-04-27T11:47:27.285Z,0.60
2023-04-27T11:49:59.190Z,0.60
2023-04-27T11:52:30.730Z,0.50
2023-04-27T11:54:59.836Z,0.73
2023-04-27T11:57:28.464Z,0.50
2023-04-27T12:00:00.761Z,0.70
2023-04-27T12:02:30.931Z,2.83
2023-04-27T12:04:59.643Z,0.70
2023-04-27T12:07:26.772Z,0.80
2023-04-27T12:09:53.542Z,0.32
2023-04-27T12:12:20.944Z,0.77
2023-04-27T12:14:48.187Z,0.70
2023-04-27T12:17:15.255Z,1.10
2023-04-27T12:19:42.066Z,0.98
2023-04-27T12:22:09.118Z,1.17
2023-04-27T12:24:36.197Z,1.27
2023-04-27T12:27:03.592Z,1.05
2023-04-27T12:29:30.678Z,0.90
2023-04-27T12:31:59.155Z,1.20
2023-04-27T12:34:26.765Z,1.08
2023-04-27T12:36:53.534Z,0.90
2023-04-27T12:39:23.823Z,0.90
2023-04-27T12:41:51.335Z,0.65
2023-04-27T12:44:19.265Z,0.73
2023-04-27T12:46:46.558Z,1.17
2023-04-27T12:49:14.778Z,0.90
2023-04-27T12:51:41.694Z,1.27
2023-04-27T12:54:09.881Z,1.20
2023-04-27T12:56:36.813Z,1.10
2023-04-27T12:59:03.764Z,0.98
2023-04-27T13:01:30.528Z,1.07
2023-04-27T13:04:04.065Z,1.05
2023-04-27T13:06:31.518Z,1.10
2023-04-27T13:08:59.472Z,1.10
2023-04-27T13:11:27.115Z,1.05
2023-04-27T13:13:54.232Z,0.97
2023-04-27T13:16:21.879Z,1.17
2023-04-27T13:18:49.221Z,1.45
2023-04-27T13:21:16.588Z,1.27
2023-04-27T13:23:43.538Z,1.48
2023-04-27T13:26:11.309Z,0.73
2023-04-27T13:28:38.166Z,0.77
2023-04-27T13:31:05.798Z,0.60
2023-04-27T13:33:34.927Z,0.45
2023-04-27T13:36:01.724Z,0.35
2023-04-27T13:38:28.707Z,0.50
2023-04-27T13:40:55.490Z,0.43
2023-04-27T13:43:22.390Z,0.20
2023-04-27T13:45:49.219Z,0.20
2023-04-27T13:48:16.074Z,0.30
2023-04-27T13:50:42.880Z,0.40
2023-04-27T13:53:09.658Z,0.20
2023-04-27T13:55:36.529Z,1.10
2023-04-27T13:58:03.839Z,0.70
2023-04-27T14:00:31.444Z,0.40
2023-04-27T14:02:58.478Z,0.20
2023-04-27T14:05:25.520Z,0.60
2023-04-27T14:07:52.859Z,0.15
2023-04-27T14:10:20.322Z,0.35
2023-04-27T14:12:50.646Z,0.70
2023-04-27T14:15:17.667Z,0.40
2023-04-27T14:17:44.542Z,0.43
2023-04-27T14:20:11.546Z,0.60
2023-04-27T14:22:38.292Z,1.33
2023-04-27T14:25:05.632Z,0.40
2023-04-27T14:27:32.377Z,0.30
2023-04-27T14:29:59.191Z,0.30
2023-04-27T14:32:27.142Z,0.47
2023-04-27T14:34:54.051Z,0.20
2023-04-27T14:37:21.801Z,0.20
2023-04-27T14:39:49.243Z,0.27
2023-04-27T14:42:16.050Z,0.52
2023-04-27T14:44:42.757Z,0.50
2023-04-27T14:47:09.807Z,0.43
2023-04-27T14:49:36.618Z,0.20
2023-04-27T14:52:03.561Z,0.40
2023-04-27T14:54:30.479Z,0.10
2023-04-27T14:56:58.617Z,0.98
2023-04-27T14:59:25.632Z,0.17
2023-04-27T15:01:52.583Z,0.40
2023-04-27T15:04:20.521Z,0.20
2023-04-27T15:06:48.361Z,0.17
2023-04-27T15:09:15.393Z,0.50
2023-04-27T15:11:42.355Z,0.30
2023-04-27T15:14:09.124Z,0.40
2023-04-27T15:16:36.855Z,0.20
2023-04-27T15:19:03.884Z,0.30
2023-04-27T15:21:32.392Z,0.47
2023-04-27T15:23:59.153Z,0.20
2023-04-27T15:26:26.644Z,0.30
2023-04-27T15:28:54.880Z,0.40
2023-04-27T15:31:21.919Z,0.20
2023-04-27T15:33:49.048Z,0.10
2023-04-27T15:36:15.765Z,0.40
2023-04-27T15:38:42.584Z,0.13
2023-04-27T15:41:09.881Z,0.40
2023-04-27T15:43:36.724Z,0.20
2023-04-27T15:46:05.463Z,0.22
2023-04-27T15:48:32.685Z,0.20
2023-04-27T15:50:59.546Z,0.20
2023-04-27T15:53:26.416Z,0.13
2023-04-27T15:55:53.171Z,0.30
2023-04-27T15:58:20.005Z,0.20
2023-04-27T16:00:46.849Z,0.30
2023-04-27T16:03:13.722Z,0.20
2023-04-27T16:05:40.757Z,0.17
2023-04-27T16:08:07.607Z,0.25
2023-04-27T16:10:34.606Z,0.10
2023-04-27T16:13:01.463Z,0.10
2023-04-27T16:15:28.271Z,0.30
2023-04-27T16:17:55.184Z,0.40
2023-04-27T16:20:22.388Z,0.20
2023-04-27T16:22:49.301Z,0.10
2023-04-27T16:25:16.163Z,0.20
2023-04-27T16:27:43.052Z,0.20
2023-04-27T16:30:10.008Z,0.10
2023-04-27T16:32:37.940Z,0.10
2023-04-27T16:35:05.054Z,0.10
2023-04-27T16:37:31.833Z,0.20
2023-04-27T16:39:58.612Z,0.20
2023-04-27T16:42:25.659Z,0.20
2023-04-27T16:44:52.654Z,0.25
2023-04-27T16:47:19.496Z,0.20
2023-04-27T16:49:47.050Z,0.20
2023-04-27T16:52:13.889Z,0.20
2023-04-27T16:54:40.794Z,0.17
2023-04-27T16:57:07.762Z,0.40
2023-04-27T16:59:35.028Z,0.20
2023-04-27T17:02:16.327Z,0.13
2023-04-27T17:04:48.894Z,0.40
2023-04-27T17:07:15.656Z,0.57
2023-04-27T17:09:42.486Z,0.70
2023-04-27T17:12:09.408Z,0.60
2023-04-27T17:14:37.087Z,0.70
2023-04-27T17:17:04.639Z,0.50
2023-04-27T17:19:31.527Z,0.40
2023-04-27T17:21:58.889Z,0.60
2023-04-27T17:24:25.746Z,0.70
2023-04-27T17:26:52.643Z,0.30
2023-04-27T17:29:19.715Z,0.80
2023-04-27T17:31:46.922Z,0.63
2023-04-27T17:34:13.850Z,0.57
2023-04-27T17:36:41.140Z,0.38
2023-04-27T17:39:08.071Z,0.65
2023-04-27T17:41:36.947Z,0.22
2023-04-27T17:44:04.299Z,0.50
2023-04-27T17:46:31.435Z,0.50
2023-04-27T17:48:58.327Z,0.52
2023-04-27T17:51:25.444Z,0.25
2023-04-27T17:53:53.846Z,0.50
2023-04-27T17:56:20.730Z,0.20
2023-04-27T17:58:47.692Z,0.45
2023-04-27T18:01:14.725Z,0.47
2023-04-27T18:03:42.173Z,0.65
2023-04-27T18:06:09.209Z,0.30
2023-04-27T18:08:36.850Z,0.37
2023-04-27T18:11:03.798Z,0.45
2023-04-27T18:13:30.751Z,0.40
2023-04-27T18:15:57.675Z,0.63
2023-04-27T18:18:28.107Z,0.65
2023-04-27T18:20:55.145Z,0.60
2023-04-27T18:23:22.531Z,0.60
2023-04-27T18:25:49.736Z,0.75
2023-04-27T18:28:17.122Z,0.85
2023-04-27T18:30:44.143Z,0.77
2023-04-27T18:33:11.754Z,0.80
2023-04-27T18:35:39.007Z,0.60
2023-04-27T18:38:06.041Z,0.70
2023-04-27T18:40:33.204Z,0.60
2023-04-27T18:43:00.034Z,0.40
2023-04-27T18:45:27.532Z,0.80
2023-04-27T18:47:57.545Z,0.70
2023-04-27T18:50:25.541Z,0.68
2023-04-27T18:52:53.627Z,0.50
2023-04-27T18:55:21.285Z,0.63
2023-04-27T18:57:48.423Z,0.77
2023-04-27T19:00:16.142Z,0.63
2023-04-27T19:02:43.546Z,0.70
2023-04-27T19:05:13.474Z,0.60
2023-04-27T19:07:41.243Z,0.80
2023-04-27T19:10:08.966Z,0.70
2023-04-27T19:12:35.783Z,0.60
2023-04-27T19:15:03.394Z,0.47
2023-04-27T19:17:30.915Z,0.80
2023-04-27T19:19:58.283Z,0.60
2023-04-27T19:22:25.427Z,0.73
2023-04-27T19:24:52.637Z,0.70
2023-04-27T19:27:20.406Z,0.47
2023-04-27T19:29:51.473Z,0.50
2023-04-27T19:32:18.829Z,0.50
2023-04-27T19:34:46.650Z,0.60
2023-04-27T19:37:14.040Z,0.75
2023-04-27T19:39:40.937Z,0.60
2023-04-27T19:42:07.995Z,0.50
2023-04-27T19:44:34.916Z,0.68
2023-04-27T19:47:01.786Z,0.20
2023-04-27T19:49:32.208Z,0.80
2023-04-27T19:52:00.408Z,0.90
2023-04-27T19:54:27.290Z,1.05
2023-04-27T19:56:55.373Z,1.10
2023-04-27T19:59:22.507Z,1.00
2023-04-27T20:01:49.720Z,1.35
2023-04-27T20:04:17.733Z,1.13
2023-04-27T20:06:45.227Z,1.00
2023-04-27T20:09:12.546Z,1.20
2023-04-27T20:11:39.366Z,1.07
2023-04-27T20:14:06.480Z,1.60
2023-04-27T20:16:33.693Z,1.50
2023-04-27T20:19:00.645Z,1.23
2023-04-27T20:21:27.354Z,1.67
2023-04-27T20:23:54.226Z,1.47
2023-04-27T20:26:20.991Z,1.30
2023-04-27T20:28:47.964Z,1.30
2023-04-27T20:31:14.670Z,1.50
2023-04-27T20:33:42.270Z,1.50
2023-04-27T20:36:17.124Z,2.10
2023-04-27T20:38:45.979Z,1.30
2023-04-27T20:41:12.955Z,1.38
2023-04-27T20:43:39.898Z,1.48
2023-04-27T20:46:11.217Z,1.30
2023-04-27T20:48:38.250Z,1.17
2023-04-27T20:51:05.111Z,1.20
2023-04-27T20:53:32.319Z,1.10
2023-04-27T20:55:59.087Z,1.20
2023-04-27T20:58:25.875Z,0.98
2023-04-27T21:00:53.951Z,1.13
2023-04-27T21:03:20.981Z,0.90
2023-04-27T21:05:47.898Z,1.40
2023-04-27T21:08:16.051Z,0.80
2023-04-27T21:10:45.822Z,0.90
2023-04-27T21:13:12.676Z,1.10
2023-04-27T21:15:39.578Z,1.20
2023-04-27T21:18:06.668Z,1.10
2023-04-27T21:20:36.456Z,1.05
2023-04-27T21:23:03.236Z,1.13
2023-04-27T21:25:30.088Z,1.53
2023-04-27T21:27:56.910Z,1.20
2023-04-27T21:30:23.959Z,1.33
2023-04-27T21:32:50.826Z,1.30
2023-04-27T21:35:17.651Z,1.30
2023-04-27T21:37:44.594Z,1.60
2023-04-27T21:40:11.681Z,1.30
2023-04-27T21:42:39.236Z,1.30
2023-04-27T21:45:06.508Z,1.20
2023-04-27T21:47:33.355Z,1.52
2023-04-27T21:50:00.319Z,1.13
2023-04-27T21:52:27.479Z,1.20
2023-04-27T21:54:54.278Z,1.10
2023-04-27T21:57:21.134Z,0.90
2023-04-27T21:59:48.176Z,0.80
2023-04-27T22:02:15.024Z,1.20
2023-04-27T22:04:41.880Z,0.90
2023-04-27T22:07:09.400Z,1.35
2023-04-27T22:09:36.651Z,1.58
2023-04-27T22:12:28.975Z,1.38
2023-04-27T22:14:55.942Z,1.27
2023-04-27T22:17:22.864Z,1.17
2023-04-27T22:19:49.601Z,1.38
2023-04-27T22:22:16.680Z,1.23
2023-04-27T22:24:43.548Z,1.55
2023-04-27T22:27:10.243Z,1.23
2023-04-27T22:29:37.124Z,1.30
2023-04-27T22:32:04.271Z,1.50
2023-04-27T22:34:32.370Z,1.48
2023-04-27T22:36:59.193Z,1.50
2023-04-27T22:39:26.065Z,1.30
2023-04-27T22:41:52.876Z,1.52
2023-04-27T22:44:19.802Z,1.20
2023-04-27T22:46:46.870Z,1.58
2023-04-27T22:49:13.756Z,1.75
2023-04-27T22:51:40.547Z,1.27
2023-04-27T22:54:07.490Z,1.88
2023-04-27T22:56:34.257Z,1.58
2023-04-27T22:59:01.948Z,1.40
2023-04-27T23:01:28.887Z,1.60
2023-04-27T23:03:55.932Z,1.40
2023-04-27T23:06:22.859Z,1.70
2023-04-27T23:08:49.786Z,1.20
2023-04-27T23:11:16.746Z,1.83
2023-04-27T23:13:43.519Z,1.80
2023-04-27T23:16:10.550Z,1.40
2023-04-27T23:18:37.346Z,1.45
2023-04-27T23:21:04.325Z,1.70
2023-04-27T23:23:31.082Z,1.60
2023-04-27T23:25:58.036Z,1.58
2023-04-27T23:28:24.915Z,1.50
2023-04-27T23:30:53.301Z,1.48
2023-04-27T23:33:20.552Z,1.35
2023-04-27T23:35:47.412Z,1.90
2023-04-27T23:38:14.187Z,1.80
2023-04-27T23:40:41.030Z,1.40
2023-04-27T23:43:07.928Z,1.65
2023-04-27T23:45:34.869Z,1.40
2023-04-27T23:48:01.824Z,1.45
2023-04-27T23:50:28.819Z,1.30
2023-04-27T23:52:55.733Z,1.50
2023-04-27T23:55:22.831Z,1.50
2023-04-27T23:57:51.284Z,1.30
